Terminal Aerodrome Forecast
Issued by NWS Cleveland, OH

Home | Current Version | Previous Version | Graphics & Text | Print | Product List | Glossary On
Versions: 1 2 3 4 5 6 7 8 9 10 11 12 13 14 15 16 17 18 19 20 21 22
000
FTUS41 KCLE 020523
TAFMFD
TAF
KMFD 020523Z 0206/0306 01007KT P6SM SCT015
     FM020800 01004KT P6SM BKN015
     FM021000 01004KT 4SM BR OVC007
     FM021600 03008KT P6SM SCT250=

USA.gov is the U.S. government's official web portal to all federal, state and local government web resources and services.